Time;durP1;ratioP1;P1;durP2;ratioP2;P2;SDS_P1;SDS_P2;PMS_P1;PMS_P2;Temp;Humidity;BMP_temperature;BMP_pressure;BME280_temperature;BME280_humidity;BME280_pressure;Samples;Min_cycle;Max_cycle;Signal;HPM_P1;HPM_P2
2023/01/20 00:01:10;;;;;;;12.40;6.05;;;0.20;57.20;;;;;;5073723;28;20189;-67
2023/01/20 00:03:38;;;;;;;14.63;7.65;;;0.10;57.30;;;;;;5071530;28;20601;-66
2023/01/20 00:06:09;;;;;;;14.57;8.05;;;0.10;57.50;;;;;;5053422;28;20649;-65
2023/01/20 00:08:36;;;;;;;11.57;7.80;;;0.00;57.90;;;;;;5053748;28;20229;-66
2023/01/20 00:11:08;;;;;;;13.93;7.55;;;0.00;58.00;;;;;;5053629;28;20241;-65
2023/01/20 00:13:37;;;;;;;11.63;7.60;;;0.00;58.10;;;;;;5056177;28;20240;-66
2023/01/20 00:16:06;;;;;;;15.45;7.63;;;-0.10;58.20;;;;;;5073189;28;20220;-64
2023/01/20 00:18:33;;;;;;;12.23;7.28;;;0.00;58.20;;;;;;5071214;28;20282;-63
2023/01/20 00:21:03;;;;;;;12.40;7.68;;;0.00;58.30;;;;;;5053803;28;20661;-65
2023/01/20 00:23:31;;;;;;;11.50;6.45;;;0.00;58.20;;;;;;5053296;28;20240;-65
2023/01/20 00:25:58;;;;;;;13.50;6.78;;;0.00;58.00;;;;;;5053631;28;20199;-65
2023/01/20 00:28:27;;;;;;;11.93;6.70;;;0.10;57.80;;;;;;5052953;28;20234;-66
2023/01/20 00:30:55;;;;;;;14.77;6.57;;;0.00;57.70;;;;;;5053039;28;20193;-66
2023/01/20 00:33:22;;;;;;;12.70;7.50;;;0.10;58.00;;;;;;5053084;28;20287;-65
2023/01/20 00:35:49;;;;;;;11.13;6.88;;;0.10;57.80;;;;;;5053540;28;20652;-65
2023/01/20 00:38:17;;;;;;;14.88;7.63;;;0.10;57.70;;;;;;5053083;28;20325;-66
2023/01/20 00:40:44;;;;;;;11.05;8.07;;;0.10;57.90;;;;;;5057136;28;20217;-66
2023/01/20 00:43:12;;;;;;;13.75;8.32;;;0.10;58.20;;;;;;5072743;28;20194;-66
2023/01/20 00:45:43;;;;;;;11.50;7.13;;;0.20;58.50;;;;;;5072897;28;20214;-66
2023/01/20 00:48:11;;;;;;;9.57;6.13;;;0.20;58.20;;;;;;5073080;28;20347;-65
2023/01/20 00:50:38;;;;;;;10.30;6.85;;;0.20;58.30;;;;;;5073224;28;20193;-66
2023/01/20 00:53:05;;;;;;;11.82;6.72;;;0.10;58.20;;;;;;5073491;28;20574;-67
2023/01/20 00:55:34;;;;;;;9.90;6.25;;;0.10;58.10;;;;;;5073261;28;20554;-66
2023/01/20 00:58:02;;;;;;;9.85;6.03;;;0.10;59.00;;;;;;5073296;28;20251;-65
2023/01/20 01:00:29;;;;;;;14.45;7.03;;;0.10;58.60;;;;;;5073357;28;20252;-65
2023/01/20 01:02:56;;;;;;;14.40;6.72;;;0.10;58.80;;;;;;5071823;28;20189;-66
2023/01/20 01:05:25;;;;;;;11.57;6.63;;;0.10;58.70;;;;;;5072720;28;20206;-66
2023/01/20 01:07:53;;;;;;;8.98;5.70;;;0.10;58.80;;;;;;5073042;28;20280;-65
2023/01/20 01:10:20;;;;;;;12.68;6.53;;;0.20;58.80;;;;;;5072712;28;20193;-66
2023/01/20 01:12:48;;;;;;;8.20;6.13;;;0.20;58.70;;;;;;5062840;28;20190;-65
2023/01/20 01:15:15;;;;;;;11.30;7.15;;;0.30;58.70;;;;;;5052843;28;20196;-65
2023/01/20 01:17:47;;;;;;;10.82;7.03;;;0.30;58.70;;;;;;5058632;28;20202;-66
2023/01/20 01:20:14;;;;;;;9.73;6.35;;;0.30;58.90;;;;;;5072744;28;20272;-66
2023/01/20 01:22:43;;;;;;;11.00;5.90;;;0.30;58.90;;;;;;5063684;28;20201;-66
2023/01/20 01:25:11;;;;;;;12.68;6.15;;;0.30;58.60;;;;;;5052518;28;20244;-65
2023/01/20 01:27:39;;;;;;;8.02;5.60;;;0.30;58.30;;;;;;5052660;28;20640;-66
2023/01/20 01:30:07;;;;;;;7.82;6.03;;;0.30;58.50;;;;;;5063692;28;20268;-66
2023/01/20 01:32:34;;;;;;;8.65;5.25;;;0.20;58.30;;;;;;5069390;28;20185;-65
2023/01/20 01:35:01;;;;;;;9.38;5.40;;;0.20;58.40;;;;;;5070255;28;20288;-66
2023/01/20 01:37:28;;;;;;;9.90;4.82;;;0.20;58.50;;;;;;5068687;28;20273;-66
2023/01/20 01:39:57;;;;;;;7.38;4.78;;;0.10;58.30;;;;;;5051880;28;20193;-66
2023/01/20 01:42:25;;;;;;;10.43;6.57;;;0.20;57.80;;;;;;5069512;28;20244;-66
2023/01/20 01:45:19;;;;;;;8.15;4.78;;;0.10;57.70;;;;;;5069351;28;20312;-65
2023/01/20 01:47:49;;;;;;;9.20;5.70;;;0.10;57.70;;;;;;5068279;28;20192;-66
2023/01/20 01:50:20;;;;;;;7.38;4.82;;;0.10;58.20;;;;;;5064286;28;20266;-66
2023/01/20 01:52:52;;;;;;;11.10;4.43;;;0.10;58.30;;;;;;5069648;28;20289;-66
2023/01/20 01:55:24;;;;;;;9.30;4.97;;;0.10;58.40;;;;;;5068604;28;20182;-66
2023/01/20 01:57:51;;;;;;;9.07;4.15;;;0.10;58.30;;;;;;5051764;28;20241;-66
2023/01/20 02:00:20;;;;;;;8.55;4.40;;;0.10;58.10;;;;;;5067197;28;20697;-66
2023/01/20 02:02:47;;;;;;;6.68;3.88;;;0.10;57.90;;;;;;5069884;28;20221;-65
2023/01/20 02:05:16;;;;;;;6.32;3.88;;;0.20;57.80;;;;;;5060666;28;20229;-66
2023/01/20 02:07:45;;;;;;;8.15;3.70;;;0.20;57.70;;;;;;5069342;28;20189;-66
2023/01/20 02:10:17;;;;;;;5.70;3.00;;;0.20;57.50;;;;;;5069153;28;20649;-66
2023/01/20 02:12:50;;;;;;;5.90;3.10;;;0.20;57.40;;;;;;5068821;28;20732;-66
2023/01/20 02:15:22;;;;;;;5.22;3.85;;;0.10;57.20;;;;;;5068893;28;20194;-66
2023/01/20 02:18:05;;;;;;;5.90;3.22;;;0.10;57.30;;;;;;5069179;28;20277;-66
2023/01/20 02:21:13;;;;;;;7.35;3.72;;;0.10;57.40;;;;;;5062854;28;20269;-66
2023/01/20 02:24:07;;;;;;;4.68;2.90;;;0.10;57.40;;;;;;5051390;28;20194;-66
2023/01/20 02:26:53;;;;;;;5.13;2.80;;;0.00;57.40;;;;;;5051796;28;20234;-65
2023/01/20 02:29:44;;;;;;;7.03;3.28;;;0.00;57.70;;;;;;5053844;28;20608;-67
2023/01/20 02:32:26;;;;;;;7.20;2.97;;;0.00;57.60;;;;;;5051350;28;20205;-66
2023/01/20 02:35:02;;;;;;;8.30;2.63;;;0.00;57.50;;;;;;5063151;28;20611;-66
2023/01/20 02:37:36;;;;;;;5.25;2.95;;;-0.10;57.30;;;;;;5051372;28;20224;-66
2023/01/20 02:40:17;;;;;;;8.60;2.83;;;-0.10;57.60;;;;;;5057503;28;20339;-66
2023/01/20 02:42:49;;;;;;;5.72;3.47;;;-0.10;57.70;;;;;;5069284;28;20731;-67
2023/01/20 02:45:20;;;;;;;5.55;2.95;;;0.00;57.40;;;;;;5069171;28;20674;-65
2023/01/20 02:47:53;;;;;;;5.55;3.20;;;0.00;57.50;;;;;;5067699;28;20259;-66
2023/01/20 02:50:31;;;;;;;5.75;3.15;;;0.00;57.60;;;;;;5051645;28;20225;-66
2023/01/20 02:53:01;;;;;;;4.38;2.80;;;0.00;58.20;;;;;;5051397;28;20692;-66
2023/01/20 02:55:36;;;;;;;5.47;2.70;;;0.00;57.40;;;;;;5051537;28;20273;-66
2023/01/20 02:58:06;;;;;;;5.35;3.15;;;0.10;57.30;;;;;;5052790;28;20214;-66
2023/01/20 03:00:39;;;;;;;5.75;2.80;;;0.10;57.30;;;;;;5055207;28;20285;-65
2023/01/20 03:03:11;;;;;;;6.57;3.50;;;0.20;57.30;;;;;;5054493;28;20281;-66
2023/01/20 03:05:43;;;;;;;5.35;3.17;;;0.20;57.40;;;;;;5054809;28;20190;-66
2023/01/20 03:08:13;;;;;;;4.10;2.42;;;0.20;57.40;;;;;;5067225;28;20225;-65
2023/01/20 03:10:42;;;;;;;5.15;3.10;;;0.20;56.90;;;;;;5072433;28;20269;-66
2023/01/20 03:13:15;;;;;;;4.88;2.90;;;0.20;56.90;;;;;;5072513;28;20281;-67
2023/01/20 03:15:54;;;;;;;6.00;3.78;;;0.00;57.00;;;;;;5051949;28;20261;-65
2023/01/20 03:18:23;;;;;;;5.70;3.35;;;-0.10;57.30;;;;;;5071693;28;20639;-66
2023/01/20 03:20:50;;;;;;;6.38;3.63;;;-0.10;57.80;;;;;;5054666;28;20263;-65
2023/01/20 03:23:17;;;;;;;6.78;2.85;;;0.00;57.90;;;;;;5069602;28;20285;-65
2023/01/20 03:25:47;;;;;;;4.22;3.17;;;-0.20;58.00;;;;;;5071854;28;20593;-66
2023/01/20 03:28:14;;;;;;;7.90;3.92;;;-0.20;58.20;;;;;;5054138;28;20285;-65
2023/01/20 03:30:41;;;;;;;8.00;3.35;;;-0.20;58.60;;;;;;5067741;28;20255;-66
2023/01/20 03:33:11;;;;;;;8.85;4.25;;;-0.10;58.90;;;;;;5071995;28;20285;-65
2023/01/20 03:35:41;;;;;;;8.93;3.70;;;-0.10;58.90;;;;;;5069699;28;20251;-66
2023/01/20 03:38:08;;;;;;;6.55;3.45;;;0.00;58.90;;;;;;5053923;28;20229;-66
2023/01/20 03:40:46;;;;;;;8.50;3.70;;;0.00;58.90;;;;;;5066485;28;20202;-65
2023/01/20 03:43:23;;;;;;;7.28;3.78;;;0.10;59.10;;;;;;5054310;28;20605;-67
2023/01/20 03:45:55;;;;;;;6.55;3.50;;;0.10;58.90;;;;;;5061806;28;20295;-65
2023/01/20 03:48:29;;;;;;;5.45;2.90;;;0.10;59.00;;;;;;5053695;28;20297;-65
2023/01/20 03:51:00;;;;;;;5.90;3.58;;;0.20;59.00;;;;;;5053632;28;20198;-66
2023/01/20 03:53:36;;;;;;;7.35;3.72;;;0.10;59.10;;;;;;5053554;28;20240;-67
2023/01/20 03:56:07;;;;;;;8.00;3.97;;;0.20;59.20;;;;;;5059323;28;20181;-66
2023/01/20 03:58:39;;;;;;;8.23;3.75;;;0.20;59.00;;;;;;5071166;28;20221;-65
2023/01/20 04:01:11;;;;;;;9.73;4.88;;;0.20;59.20;;;;;;5069460;28;20264;-66
2023/01/20 04:03:45;;;;;;;11.23;5.00;;;0.10;59.20;;;;;;5070954;28;20618;-66
2023/01/20 04:06:16;;;;;;;8.25;3.33;;;0.10;59.40;;;;;;5070813;28;20190;-66
2023/01/20 04:08:47;;;;;;;9.20;3.65;;;0.10;59.50;;;;;;5070496;28;20225;-66
2023/01/20 04:11:20;;;;;;;5.43;3.78;;;0.10;59.50;;;;;;5066639;28;20269;-66
2023/01/20 04:13:49;;;;;;;6.10;4.38;;;0.10;59.50;;;;;;5053002;28;20281;-66
2023/01/20 04:16:34;;;;;;;6.93;4.15;;;0.10;60.30;;;;;;5065981;28;20223;-65
2023/01/20 04:19:01;;;;;;;6.28;4.15;;;0.00;59.70;;;;;;5070252;28;20700;-66
2023/01/20 04:21:35;;;;;;;6.60;4.00;;;0.00;59.70;;;;;;5069101;28;20193;-66
2023/01/20 04:24:06;;;;;;;9.73;5.53;;;-0.10;60.10;;;;;;5070844;28;20743;-66
2023/01/20 04:26:34;;;;;;;10.40;4.80;;;-0.10;60.40;;;;;;5057993;28;20261;-65
2023/01/20 04:29:07;;;;;;;9.38;4.65;;;-0.10;60.40;;;;;;5070842;28;20289;-65
2023/01/20 04:31:35;;;;;;;12.05;5.47;;;-0.10;60.70;;;;;;5070665;28;20221;-66
2023/01/20 04:34:02;;;;;;;9.15;5.40;;;-0.10;60.90;;;;;;5053009;28;20197;-66
2023/01/20 04:36:30;;;;;;;13.50;5.65;;;0.00;61.20;;;;;;5067661;28;20585;-66
2023/01/20 04:39:00;;;;;;;9.43;5.05;;;0.00;61.30;;;;;;5070368;28;20300;-66
2023/01/20 04:41:27;;;;;;;10.15;5.38;;;0.00;61.60;;;;;;5064273;28;20205;-66
2023/01/20 04:43:54;;;;;;;10.63;6.78;;;0.00;61.60;;;;;;5070107;28;20276;-66
2023/01/20 04:46:21;;;;;;;10.00;5.53;;;0.00;61.70;;;;;;5070395;28;20838;-66
2023/01/20 04:48:48;;;;;;;9.85;4.95;;;0.00;61.50;;;;;;5070480;28;20276;-66
2023/01/20 04:51:15;;;;;;;10.05;5.30;;;0.00;61.50;;;;;;5063570;28;20531;-66
2023/01/20 04:53:45;;;;;;;11.68;5.13;;;0.00;62.00;;;;;;5066511;28;20696;-66
2023/01/20 04:56:13;;;;;;;7.35;4.50;;;0.00;62.00;;;;;;5070206;28;20622;-66
2023/01/20 04:58:42;;;;;;;6.53;4.45;;;-0.10;61.90;;;;;;5069664;28;20197;-66
2023/01/20 05:01:09;;;;;;;6.15;3.70;;;-0.10;62.50;;;;;;5054118;28;20214;-65
2023/01/20 05:03:45;;;;;;;6.75;4.43;;;-0.10;62.90;;;;;;5070051;28;20669;-67
2023/01/20 05:06:17;;;;;;;8.82;5.05;;;0.00;63.00;;;;;;5069697;28;20239;-66
2023/01/20 05:08:46;;;;;;;8.95;4.70;;;0.00;63.10;;;;;;5052257;28;20505;-66
2023/01/20 05:11:13;;;;;;;12.93;5.25;;;0.00;63.00;;;;;;5062878;28;20217;-65
2023/01/20 05:13:40;;;;;;;9.98;5.60;;;0.00;63.20;;;;;;5068949;28;20246;-66
2023/01/20 05:16:08;;;;;;;8.60;4.95;;;0.00;63.50;;;;;;5069781;28;20186;-66
2023/01/20 05:18:35;;;;;;;6.90;4.43;;;0.00;63.50;;;;;;5069948;28;20233;-67
2023/01/20 05:21:04;;;;;;;6.03;3.67;;;0.00;63.70;;;;;;5066045;28;20183;-66
2023/01/20 05:23:31;;;;;;;8.07;4.18;;;0.00;63.40;;;;;;5051542;28;20579;-67
2023/01/20 05:25:59;;;;;;;6.47;3.90;;;0.00;63.20;;;;;;5065994;28;20598;-65
2023/01/20 05:28:26;;;;;;;10.95;4.13;;;0.10;63.40;;;;;;5069586;28;20209;-67
2023/01/20 05:30:53;;;;;;;7.20;3.72;;;0.00;63.20;;;;;;5068741;28;20209;-66
2023/01/20 05:33:20;;;;;;;8.23;4.25;;;0.10;63.40;;;;;;5056429;28;20269;-66
2023/01/20 05:35:47;;;;;;;6.70;4.07;;;0.10;63.70;;;;;;5048451;28;20222;-66
2023/01/20 05:38:15;;;;;;;6.18;3.97;;;0.10;64.70;;;;;;5054227;28;20209;-66
2023/01/20 05:40:42;;;;;;;11.85;5.25;;;0.10;63.90;;;;;;5052165;28;20314;-66
2023/01/20 05:43:10;;;;;;;6.68;4.90;;;0.10;64.10;;;;;;5067199;28;20285;-66
2023/01/20 05:45:37;;;;;;;8.60;4.68;;;0.10;63.90;;;;;;5069269;28;20218;-66
2023/01/20 05:48:12;;;;;;;6.55;4.95;;;0.10;63.70;;;;;;5055640;28;20198;-65
2023/01/20 05:50:39;;;;;;;11.18;5.55;;;0.10;63.90;;;;;;5051723;28;20276;-65
2023/01/20 05:53:06;;;;;;;13.85;9.20;;;0.10;63.90;;;;;;5062354;28;20280;-66
2023/01/20 05:55:33;;;;;;;17.65;10.88;;;0.10;64.60;;;;;;5069695;28;20281;-66
2023/01/20 05:58:03;;;;;;;25.20;14.30;;;0.10;63.80;;;;;;5069698;28;20610;-66
2023/01/20 06:00:32;;;;;;;16.92;10.65;;;0.10;64.10;;;;;;5064706;28;20645;-66
2023/01/20 06:02:59;;;;;;;11.85;8.20;;;0.10;64.10;;;;;;5068337;28;20286;-66
2023/01/20 06:05:27;;;;;;;9.48;6.40;;;0.10;64.30;;;;;;5068404;28;20193;-66
2023/01/20 06:07:58;;;;;;;9.10;5.60;;;0.10;64.20;;;;;;5068436;28;20277;-67
2023/01/20 06:10:26;;;;;;;7.82;4.55;;;0.00;64.20;;;;;;5053089;28;20301;-67
2023/01/20 06:12:54;;;;;;;7.18;4.78;;;0.00;64.50;;;;;;5066915;28;20193;-66
2023/01/20 06:15:22;;;;;;;5.88;4.10;;;-0.10;64.40;;;;;;5052103;28;20222;-66
2023/01/20 06:17:51;;;;;;;9.35;5.00;;;-0.10;65.10;;;;;;5051302;28;20195;-66
2023/01/20 06:20:19;;;;;;;8.55;7.32;;;-0.20;65.40;;;;;;5067960;28;20308;-65
2023/01/20 06:22:46;;;;;;;7.97;6.05;;;-0.20;65.50;;;;;;5069075;28;20225;-66
2023/01/20 06:25:13;;;;;;;10.77;5.55;;;-0.30;65.70;;;;;;5061486;28;20277;-66
2023/01/20 06:27:45;;;;;;;8.40;6.05;;;-0.30;65.90;;;;;;5065391;28;20625;-66
2023/01/20 06:30:12;;;;;;;8.40;5.35;;;-0.30;66.20;;;;;;5069334;28;20221;-65
2023/01/20 06:32:47;;;;;;;7.43;4.68;;;-0.30;66.20;;;;;;5071345;28;20557;-66
2023/01/20 06:35:16;;;;;;;7.45;4.70;;;-0.30;65.90;;;;;;5072809;28;20196;-65
2023/01/20 06:37:47;;;;;;;8.85;4.75;;;-0.30;66.10;;;;;;5059579;28;20618;-66
2023/01/20 06:40:15;;;;;;;9.43;4.85;;;-0.40;66.10;;;;;;5071602;28;20257;-65
2023/01/20 06:42:43;;;;;;;7.85;5.57;;;-0.40;66.40;;;;;;5072963;28;20217;-66
2023/01/20 06:45:11;;;;;;;8.00;5.32;;;-0.40;66.90;;;;;;5072401;28;20710;-66
2023/01/20 06:47:38;;;;;;;8.00;4.82;;;-0.40;66.90;;;;;;5072341;28;20232;-68
2023/01/20 06:50:06;;;;;;;5.43;4.00;;;-0.50;66.50;;;;;;5054941;28;20718;-66
2023/01/20 06:52:34;;;;;;;7.10;4.55;;;-0.60;67.20;;;;;;5069964;28;20194;-65
2023/01/20 06:55:01;;;;;;;7.07;4.55;;;-0.70;67.60;;;;;;5060569;28;20202;-65
2023/01/20 06:57:29;;;;;;;6.22;3.97;;;-0.60;67.80;;;;;;5053598;28;20214;-66
2023/01/20 06:59:58;;;;;;;9.25;5.38;;;-0.70;67.50;;;;;;5071910;28;20221;-65
2023/01/20 07:02:25;;;;;;;6.07;4.88;;;-0.70;67.90;;;;;;5067263;28;20201;-65
2023/01/20 07:04:52;;;;;;;7.55;5.03;;;-0.70;67.80;;;;;;5062831;28;20183;-65
2023/01/20 07:07:19;;;;;;;15.60;7.30;;;-0.70;67.90;;;;;;5057588;28;20266;-66
2023/01/20 07:09:48;;;;;;;16.65;9.50;;;-0.80;68.10;;;;;;5053927;28;20288;-66
2023/01/20 07:12:15;;;;;;;7.85;6.13;;;-0.80;68.30;;;;;;5070409;28;20190;-65
2023/01/20 07:14:43;;;;;;;7.95;6.22;;;-0.70;68.60;;;;;;5061041;28;20190;-66
2023/01/20 07:17:12;;;;;;;7.05;4.95;;;-0.70;68.00;;;;;;5057649;28;20190;-66
2023/01/20 07:19:42;;;;;;;7.20;4.68;;;-0.60;68.30;;;;;;5068762;28;20264;-67
2023/01/20 07:22:11;;;;;;;5.90;4.70;;;-0.60;68.10;;;;;;5071071;28;20196;-65
2023/01/20 07:24:39;;;;;;;6.43;3.95;;;-0.50;68.10;;;;;;5071583;28;20196;-67
2023/01/20 07:27:07;;;;;;;5.65;4.25;;;-0.40;67.70;;;;;;5057272;28;20747;-66
2023/01/20 07:29:35;;;;;;;6.35;3.88;;;-0.20;67.20;;;;;;5071023;28;20674;-65
2023/01/20 07:32:04;;;;;;;7.30;4.35;;;-0.20;67.30;;;;;;5070697;28;20194;-67
2023/01/20 07:34:32;;;;;;;6.00;3.40;;;-0.10;65.60;;;;;;5057397;28;20277;-65
2023/01/20 07:37:02;;;;;;;6.00;3.53;;;0.00;65.40;;;;;;5067900;28;20251;-65
2023/01/20 07:39:31;;;;;;;8.82;4.82;;;0.00;65.20;;;;;;5071574;28;20571;-67
2023/01/20 07:41:58;;;;;;;5.60;3.67;;;0.10;64.50;;;;;;5053686;28;20213;-65
2023/01/20 07:44:28;;;;;;;6.35;4.20;;;0.20;64.20;;;;;;5067586;28;20198;-66
2023/01/20 07:46:57;;;;;;;6.80;4.40;;;0.20;63.70;;;;;;5070920;28;20201;-66
2023/01/20 07:49:26;;;;;;;4.97;3.25;;;0.30;63.30;;;;;;5067760;28;20221;-66
2023/01/20 07:51:53;;;;;;;6.60;3.28;;;0.40;63.30;;;;;;5055877;28;20190;-68
2023/01/20 07:54:20;;;;;;;5.32;3.20;;;0.40;63.10;;;;;;5059024;28;20271;-66
2023/01/20 07:56:47;;;;;;;5.22;3.17;;;0.50;63.00;;;;;;5054215;28;20315;-66
2023/01/20 07:59:14;;;;;;;5.57;3.33;;;0.50;62.70;;;;;;5053817;28;20281;-66
2023/01/20 08:01:43;;;;;;;6.00;3.85;;;0.50;62.80;;;;;;5068357;28;20300;-66
2023/01/20 08:04:11;;;;;;;5.25;3.70;;;0.60;62.80;;;;;;5073685;28;20193;-66
2023/01/20 08:06:38;;;;;;;6.35;4.03;;;0.60;63.00;;;;;;5073660;28;20194;-66
2023/01/20 08:09:08;;;;;;;6.97;4.57;;;0.60;63.00;;;;;;5073805;28;20276;-66
2023/01/20 08:11:37;;;;;;;10.80;6.25;;;0.70;62.80;;;;;;5074063;28;20197;-67
2023/01/20 08:14:04;;;;;;;9.82;7.43;;;0.70;62.60;;;;;;5074019;28;20228;-66
2023/01/20 08:16:31;;;;;;;10.13;5.70;;;0.70;62.50;;;;;;5073955;28;20229;-65
2023/01/20 08:19:00;;;;;;;7.10;4.47;;;0.70;62.30;;;;;;5074170;28;20255;-64
2023/01/20 08:21:29;;;;;;;7.45;4.65;;;0.70;62.30;;;;;;5073475;28;20256;-65
2023/01/20 08:23:57;;;;;;;6.22;4.07;;;0.70;62.10;;;;;;5073642;28;20190;-65
2023/01/20 08:26:24;;;;;;;7.32;4.20;;;0.70;62.10;;;;;;5073422;28;20225;-65
2023/01/20 08:28:52;;;;;;;5.75;3.80;;;0.70;62.20;;;;;;5073659;28;20225;-65
2023/01/20 08:31:23;;;;;;;8.15;4.97;;;0.80;62.20;;;;;;5073318;28;20277;-65
2023/01/20 08:33:53;;;;;;;9.30;4.20;;;0.80;62.30;;;;;;5073829;28;20229;-65
2023/01/20 08:36:24;;;;;;;6.97;4.18;;;0.80;62.00;;;;;;5073657;28;20259;-65
2023/01/20 08:38:51;;;;;;;6.97;4.72;;;0.80;61.80;;;;;;5073538;28;20531;-65
2023/01/20 08:41:20;;;;;;;6.82;4.72;;;0.90;62.00;;;;;;5073215;28;20743;-65
2023/01/20 08:43:47;;;;;;;7.75;3.75;;;0.90;61.60;;;;;;5073202;28;20718;-65
2023/01/20 08:46:16;;;;;;;6.85;4.05;;;0.90;61.20;;;;;;5072805;28;20332;-66
2023/01/20 08:48:50;;;;;;;5.97;4.25;;;1.00;61.10;;;;;;5072982;28;20272;-65
2023/01/20 08:51:19;;;;;;;7.82;4.50;;;0.90;61.20;;;;;;5072966;28;20744;-65
2023/01/20 08:53:48;;;;;;;8.85;5.75;;;1.00;60.90;;;;;;5073131;28;20194;-65
2023/01/20 08:56:16;;;;;;;7.45;5.22;;;1.10;60.40;;;;;;5073091;28;20198;-65
2023/01/20 08:58:44;;;;;;;6.32;4.60;;;1.20;60.90;;;;;;5072946;28;20284;-65
2023/01/20 09:01:14;;;;;;;5.28;3.97;;;1.20;60.90;;;;;;5072778;28;20224;-66
2023/01/20 09:03:41;;;;;;;6.65;3.88;;;1.30;61.20;;;;;;5072924;28;20185;-65
2023/01/20 09:06:09;;;;;;;5.88;3.40;;;1.30;60.80;;;;;;5073035;28;20655;-66
2023/01/20 09:08:36;;;;;;;5.20;3.78;;;1.40;61.10;;;;;;5072909;28;20232;-66
2023/01/20 09:11:07;;;;;;;5.38;3.53;;;1.50;61.00;;;;;;5073005;28;20261;-66
2023/01/20 09:13:34;;;;;;;10.68;6.97;;;1.60;60.60;;;;;;5073065;28;20276;-65
2023/01/20 09:16:02;;;;;;;11.65;5.20;;;1.60;59.90;;;;;;5072903;28;20280;-64
2023/01/20 09:18:31;;;;;;;6.93;4.03;;;1.70;59.80;;;;;;5064816;28;20200;-64
2023/01/20 09:21:00;;;;;;;8.63;4.35;;;1.70;60.10;;;;;;5070615;28;20304;-65
2023/01/20 09:23:28;;;;;;;10.45;5.95;;;1.70;59.90;;;;;;5072603;28;20197;-64
2023/01/20 09:25:58;;;;;;;22.45;15.55;;;1.70;59.60;;;;;;5072917;28;20235;-65
2023/01/20 09:28:27;;;;;;;12.00;8.13;;;1.80;59.60;;;;;;5072685;28;20194;-64
2023/01/20 09:30:58;;;;;;;12.18;6.47;;;1.70;60.00;;;;;;5072636;28;20220;-64
2023/01/20 09:33:24;;;;;;;8.50;5.60;;;1.70;60.40;;;;;;5072626;28;20229;-65
2023/01/20 09:35:56;;;;;;;7.65;5.50;;;1.80;60.80;;;;;;5072709;28;20277;-64
2023/01/20 09:44:19;;;;;;;7.50;3.50;;;2.10;61.80;;;;;;5072549;28;20201;-65
2023/01/20 09:47:22;;;;;;;9.07;5.40;;;2.30;61.20;;;;;;5072385;28;20215;-65
2023/01/20 09:53:02;;;;;;;7.75;5.25;;;2.40;61.00;;;;;;5072490;28;20196;-66
2023/01/20 09:55:35;;;;;;;6.93;4.15;;;2.50;61.70;;;;;;5072823;28;20189;-65
2023/01/20 09:58:11;;;;;;;7.63;4.43;;;2.70;61.80;;;;;;5072583;28;20273;-66
2023/01/20 10:00:42;;;;;;;5.55;3.95;;;2.70;61.20;;;;;;5072470;28;20252;-66
2023/01/20 10:03:15;;;;;;;8.57;4.15;;;2.90;61.80;;;;;;5072107;28;20265;-66
2023/01/20 10:05:44;;;;;;;5.90;4.03;;;3.00;61.30;;;;;;5072262;28;20272;-66
2023/01/20 10:08:17;;;;;;;6.18;4.63;;;3.10;60.80;;;;;;5076161;28;20276;-66
2023/01/20 10:10:49;;;;;;;17.65;7.25;;;3.20;60.70;;;;;;5076791;28;20288;-66
2023/01/20 10:13:20;;;;;;;11.70;7.85;;;3.30;60.00;;;;;;5076325;28;20272;-66
2023/01/20 10:15:53;;;;;;;11.05;7.28;;;3.20;58.70;;;;;;5076755;28;20597;-66
2023/01/20 10:18:28;;;;;;;7.97;4.60;;;3.20;59.40;;;;;;5076303;28;20229;-66
2023/01/20 10:21:01;;;;;;;7.28;4.15;;;3.20;59.70;;;;;;5076139;28;20264;-66
2023/01/20 10:23:34;;;;;;;6.53;3.80;;;3.30;59.60;;;;;;5076192;28;20276;-66
2023/01/20 10:26:07;;;;;;;9.77;6.78;;;3.30;59.50;;;;;;5076186;28;20226;-66
2023/01/20 10:28:38;;;;;;;5.75;4.25;;;3.40;59.00;;;;;;5075847;28;20229;-65
2023/01/20 10:31:07;;;;;;;5.45;3.70;;;3.40;59.10;;;;;;5075885;28;20292;-67
2023/01/20 10:33:37;;;;;;;4.75;3.38;;;3.30;58.90;;;;;;5076325;28;20267;-66
2023/01/20 10:36:08;;;;;;;5.55;3.40;;;3.30;59.00;;;;;;5076201;28;20276;-66
2023/01/20 10:38:43;;;;;;;6.93;3.70;;;3.30;59.60;;;;;;5075913;28;20225;-68
2023/01/20 10:41:17;;;;;;;5.82;3.20;;;3.40;60.30;;;;;;5075926;28;20257;-66
2023/01/20 10:43:44;;;;;;;5.18;3.55;;;3.60;60.90;;;;;;5075559;28;20189;-66
2023/01/20 10:46:36;;;;;;;4.65;3.20;;;3.70;60.60;;;;;;5075543;28;20317;-66
2023/01/20 10:49:33;;;;;;;5.80;4.30;;;3.90;60.80;;;;;;5075675;28;20228;-65
2023/01/20 10:52:15;;;;;;;5.20;3.53;;;4.00;60.40;;;;;;5075683;28;20632;-66
2023/01/20 10:54:48;;;;;;;7.32;3.85;;;4.20;60.70;;;;;;5075863;28;20236;-66
2023/01/20 10:57:21;;;;;;;5.57;3.80;;;4.30;59.10;;;;;;5075866;28;20293;-68
2023/01/20 10:59:53;;;;;;;5.68;4.60;;;4.40;59.20;;;;;;5075497;28;20197;-66
2023/01/20 11:02:25;;;;;;;6.20;4.35;;;4.40;57.90;;;;;;5075011;28;20779;-66
2023/01/20 11:04:57;;;;;;;6.97;5.22;;;4.30;57.60;;;;;;5075593;28;20268;-66
2023/01/20 11:07:25;;;;;;;6.88;4.25;;;4.30;57.70;;;;;;5075269;28;20196;-66
2023/01/20 11:09:53;;;;;;;7.53;3.78;;;4.30;57.80;;;;;;5075543;28;20240;-66
2023/01/20 11:12:23;;;;;;;6.00;3.85;;;4.30;58.20;;;;;;5075363;28;20201;-66
2023/01/20 11:14:51;;;;;;;10.25;4.60;;;4.50;58.80;;;;;;5075601;28;20232;-65
2023/01/20 11:17:24;;;;;;;11.63;5.00;;;4.70;58.40;;;;;;5074809;28;20284;-67
2023/01/20 11:19:53;;;;;;;6.70;4.00;;;5.00;58.60;;;;;;5074153;28;20280;-66
2023/01/20 11:22:29;;;;;;;5.40;4.13;;;5.20;57.00;;;;;;5074792;28;20377;-66
2023/01/20 11:25:02;;;;;;;4.50;3.70;;;5.30;56.00;;;;;;5075398;28;20555;-65
2023/01/20 11:27:37;;;;;;;6.55;4.47;;;5.40;55.70;;;;;;5067318;28;20197;-66
2023/01/20 11:30:07;;;;;;;6.97;4.88;;;5.50;56.30;;;;;;5075017;28;20197;-66
2023/01/20 11:32:38;;;;;;;5.95;4.45;;;5.60;57.10;;;;;;5075088;28;20717;-66
2023/01/20 11:35:20;;;;;;;4.50;3.35;;;5.60;56.20;;;;;;5074850;28;20200;-66
2023/01/20 11:37:51;;;;;;;9.93;4.03;;;5.70;56.50;;;;;;5074596;28;20225;-66
2023/01/20 11:40:22;;;;;;;4.05;3.42;;;5.80;56.70;;;;;;5074764;28;20260;-66
2023/01/20 11:42:50;;;;;;;5.05;3.30;;;5.90;56.50;;;;;;5074566;28;20695;-66
2023/01/20 11:45:27;;;;;;;4.85;3.30;;;5.90;55.30;;;;;;5074123;28;20218;-65
2023/01/20 11:48:17;;;;;;;6.43;2.75;;;5.80;55.70;;;;;;5074503;28;20193;-66
2023/01/20 11:50:48;;;;;;;3.75;2.17;;;5.70;55.70;;;;;;5074260;28;20190;-65
2023/01/20 11:53:21;;;;;;;4.90;2.83;;;5.60;55.60;;;;;;5074385;28;20190;-66
2023/01/20 11:55:54;;;;;;;4.75;2.20;;;5.60;55.30;;;;;;5074624;28;20190;-66
2023/01/20 11:58:23;;;;;;;7.55;3.00;;;5.50;55.40;;;;;;5074556;28;20201;-66
2023/01/20 12:00:52;;;;;;;8.32;4.55;;;5.50;55.50;;;;;;5074334;28;20217;-65
2023/01/20 12:03:59;;;;;;;6.70;3.72;;;5.40;55.70;;;;;;5073971;28;20697;-67
2023/01/20 12:06:29;;;;;;;13.23;5.32;;;5.10;54.80;;;;;;5073934;28;20194;-66
2023/01/20 12:09:01;;;;;;;7.32;4.72;;;4.80;55.50;;;;;;5074131;28;20619;-65
2023/01/20 12:11:32;;;;;;;10.80;6.82;;;4.60;56.40;;;;;;5074249;28;20296;-66
2023/01/20 12:14:22;;;;;;;5.75;3.80;;;4.50;57.10;;;;;;5074041;28;20736;-66
2023/01/20 12:16:55;;;;;;;3.47;2.53;;;4.40;57.80;;;;;;5074086;28;20235;-65
2023/01/20 12:19:32;;;;;;;6.10;3.40;;;4.30;58.20;;;;;;5073481;28;20233;-67
2023/01/20 12:22:09;;;;;;;7.93;3.20;;;4.30;58.40;;;;;;5073797;28;20256;-65
2023/01/20 12:27:30;;;;;;;4.18;2.90;;;4.20;58.60;;;;;;5073477;28;20196;-65
2023/01/20 12:30:03;;;;;;;6.30;3.50;;;4.10;58.90;;;;;;5073666;28;20236;-66
2023/01/20 12:32:32;;;;;;;3.78;2.83;;;4.10;59.50;;;;;;5073684;28;20513;-67
2023/01/20 12:35:00;;;;;;;4.80;3.70;;;4.00;59.60;;;;;;5073521;28;20202;-66
2023/01/20 12:37:37;;;;;;;3.70;2.90;;;3.90;59.30;;;;;;5073701;28;20255;-66
2023/01/20 12:40:18;;;;;;;5.97;3.53;;;3.80;59.70;;;;;;5073764;28;20654;-66
2023/01/20 12:43:36;;;;;;;5.50;3.72;;;3.80;60.00;;;;;;5073574;28;20255;-66
2023/01/20 12:46:32;;;;;;;6.05;3.03;;;3.70;59.90;;;;;;5014677;28;20214;-66
2023/01/20 12:49:29;;;;;;;3.58;2.10;;;3.80;60.20;;;;;;5073306;28;20532;-65
2023/01/20 12:52:10;;;;;;;3.67;1.58;;;3.70;58.70;;;;;;5065049;28;20236;-65
2023/01/20 12:55:22;;;;;;;5.97;1.77;;;3.60;57.70;;;;;;5073165;28;20264;-66
2023/01/20 12:58:07;;;;;;;3.00;1.50;;;3.50;57.80;;;;;;5063216;28;20185;-66
2023/01/20 13:00:46;;;;;;;3.60;1.85;;;3.50;57.90;;;;;;5071638;28;20202;-66
2023/01/20 13:03:44;;;;;;;3.65;1.80;;;3.50;57.90;;;;;;5073238;28;20312;-66
2023/01/20 13:06:33;;;;;;;4.05;1.70;;;3.50;58.30;;;;;;5073124;28;20555;-66
2023/01/20 13:09:17;;;;;;;3.67;1.55;;;3.50;58.20;;;;;;5052501;28;20672;-66
2023/01/20 13:11:52;;;;;;;3.00;2.10;;;3.60;58.20;;;;;;5072923;28;20280;-66
2023/01/20 13:14:24;;;;;;;4.90;1.92;;;3.60;58.20;;;;;;5072914;28;20608;-66
2023/01/20 13:17:03;;;;;;;6.13;2.75;;;3.60;58.50;;;;;;5073101;28;20548;-66
2023/01/20 13:19:34;;;;;;;4.80;3.33;;;3.60;58.60;;;;;;5072890;28;20280;-66
2023/01/20 13:22:10;;;;;;;5.97;3.25;;;3.60;58.10;;;;;;5072621;28;20290;-65
2023/01/20 13:24:41;;;;;;;4.40;2.15;;;3.60;58.20;;;;;;5072997;28;20224;-66
2023/01/20 13:27:10;;;;;;;5.47;2.70;;;3.60;58.20;;;;;;5072893;28;20197;-66